sensor_id;sensor_type;location;lat;lon;timestamp;P1;durP1;ratioP1;P2;durP2;ratioP2
25497;SDS011;13406;53.380;7.226;2023-05-10T00:01:03;9.83;;;8.83;;
25497;SDS011;13406;53.380;7.226;2023-05-10T00:03:29;9.60;;;8.77;;
25497;SDS011;13406;53.380;7.226;2023-05-10T00:05:54;9.23;;;8.43;;
25497;SDS011;13406;53.380;7.226;2023-05-10T00:08:20;9.00;;;8.20;;
25497;SDS011;13406;53.380;7.226;2023-05-10T00:10:45;10.43;;;9.53;;
25497;SDS011;13406;53.380;7.226;2023-05-10T00:13:10;8.60;;;7.80;;
25497;SDS011;13406;53.380;7.226;2023-05-10T00:15:36;8.87;;;8.07;;
25497;SDS011;13406;53.380;7.226;2023-05-10T00:18:01;9.10;;;8.37;;
25497;SDS011;13406;53.380;7.226;2023-05-10T00:20:27;9.20;;;8.40;;
25497;SDS011;13406;53.380;7.226;2023-05-10T00:22:52;8.73;;;7.93;;
25497;SDS011;13406;53.380;7.226;2023-05-10T00:25:18;9.87;;;8.97;;
25497;SDS011;13406;53.380;7.226;2023-05-10T00:27:43;9.23;;;8.43;;
25497;SDS011;13406;53.380;7.226;2023-05-10T00:30:09;9.43;;;8.53;;
25497;SDS011;13406;53.380;7.226;2023-05-10T00:32:34;9.13;;;8.33;;
25497;SDS011;13406;53.380;7.226;2023-05-10T00:35:00;8.53;;;7.83;;
25497;SDS011;13406;53.380;7.226;2023-05-10T00:37:25;9.57;;;8.77;;
25497;SDS011;13406;53.380;7.226;2023-05-10T00:39:51;9.20;;;8.40;;
25497;SDS011;13406;53.380;7.226;2023-05-10T00:42:16;9.53;;;8.73;;
25497;SDS011;13406;53.380;7.226;2023-05-10T00:44:42;9.13;;;8.33;;
25497;SDS011;13406;53.380;7.226;2023-05-10T00:47:07;9.57;;;8.77;;
25497;SDS011;13406;53.380;7.226;2023-05-10T00:49:34;11.17;;;10.17;;
25497;SDS011;13406;53.380;7.226;2023-05-10T00:52:00;9.43;;;8.60;;
25497;SDS011;13406;53.380;7.226;2023-05-10T00:54:27;8.70;;;7.90;;
25497;SDS011;13406;53.380;7.226;2023-05-10T00:56:52;9.50;;;8.60;;
25497;SDS011;13406;53.380;7.226;2023-05-10T00:59:18;8.50;;;7.77;;
25497;SDS011;13406;53.380;7.226;2023-05-10T01:01:44;8.23;;;7.53;;
25497;SDS011;13406;53.380;7.226;2023-05-10T01:04:12;10.40;;;9.50;;
25497;SDS011;13406;53.380;7.226;2023-05-10T01:06:39;10.73;;;9.73;;
25497;SDS011;13406;53.380;7.226;2023-05-10T01:09:05;10.53;;;9.60;;
25497;SDS011;13406;53.380;7.226;2023-05-10T01:11:32;10.17;;;9.27;;
25497;SDS011;13406;53.380;7.226;2023-05-10T01:13:59;10.10;;;9.20;;
25497;SDS011;13406;53.380;7.226;2023-05-10T01:16:24;10.10;;;9.20;;
25497;SDS011;13406;53.380;7.226;2023-05-10T01:18:52;10.70;;;9.70;;
25497;SDS011;13406;53.380;7.226;2023-05-10T01:21:37;9.87;;;8.97;;
25497;SDS011;13406;53.380;7.226;2023-05-10T01:24:17;10.73;;;9.83;;
25497;SDS011;13406;53.380;7.226;2023-05-10T01:35:31;11.97;;;10.77;;
25497;SDS011;13406;53.380;7.226;2023-05-10T01:41:38;8.70;;;7.90;;
25497;SDS011;13406;53.380;7.226;2023-05-10T01:44:31;9.70;;;8.90;;
25497;SDS011;13406;53.380;7.226;2023-05-10T01:47:24;7.03;;;6.43;;
25497;SDS011;13406;53.380;7.226;2023-05-10T01:49:56;5.83;;;5.33;;
25497;SDS011;13406;53.380;7.226;2023-05-10T01:52:26;5.87;;;5.37;;
25497;SDS011;13406;53.380;7.226;2023-05-10T01:55:11;6.13;;;5.53;;
25497;SDS011;13406;53.380;7.226;2023-05-10T01:57:40;4.70;;;4.30;;
25497;SDS011;13406;53.380;7.226;2023-05-10T02:00:08;5.27;;;4.77;;
25497;SDS011;13406;53.380;7.226;2023-05-10T02:02:39;6.40;;;5.90;;
25497;SDS011;13406;53.380;7.226;2023-05-10T02:05:07;6.07;;;5.57;;
25497;SDS011;13406;53.380;7.226;2023-05-10T02:07:35;6.37;;;5.80;;
25497;SDS011;13406;53.380;7.226;2023-05-10T02:10:02;6.53;;;6.00;;
25497;SDS011;13406;53.380;7.226;2023-05-10T02:12:30;6.50;;;6.00;;
25497;SDS011;13406;53.380;7.226;2023-05-10T02:14:57;5.20;;;4.80;;
25497;SDS011;13406;53.380;7.226;2023-05-10T02:17:26;5.47;;;5.00;;
25497;SDS011;13406;53.380;7.226;2023-05-10T02:19:53;5.90;;;5.40;;
25497;SDS011;13406;53.380;7.226;2023-05-10T02:22:21;6.40;;;5.80;;
25497;SDS011;13406;53.380;7.226;2023-05-10T02:24:49;6.40;;;5.90;;
25497;SDS011;13406;53.380;7.226;2023-05-10T02:27:15;5.90;;;5.40;;
25497;SDS011;13406;53.380;7.226;2023-05-10T02:29:43;6.03;;;5.57;;
25497;SDS011;13406;53.380;7.226;2023-05-10T02:32:09;6.43;;;5.83;;
25497;SDS011;13406;53.380;7.226;2023-05-10T02:34:36;6.70;;;6.20;;
25497;SDS011;13406;53.380;7.226;2023-05-10T02:37:03;6.13;;;5.63;;
25497;SDS011;13406;53.380;7.226;2023-05-10T02:39:31;5.50;;;5.10;;
25497;SDS011;13406;53.380;7.226;2023-05-10T02:41:57;5.67;;;5.17;;
25497;SDS011;13406;53.380;7.226;2023-05-10T02:44:23;5.40;;;4.90;;
25497;SDS011;13406;53.380;7.226;2023-05-10T02:46:52;6.47;;;5.87;;
25497;SDS011;13406;53.380;7.226;2023-05-10T02:49:20;5.87;;;5.37;;
25497;SDS011;13406;53.380;7.226;2023-05-10T02:51:50;5.83;;;5.33;;
25497;SDS011;13406;53.380;7.226;2023-05-10T02:54:20;5.93;;;5.43;;
25497;SDS011;13406;53.380;7.226;2023-05-10T02:56:53;4.90;;;4.50;;
25497;SDS011;13406;53.380;7.226;2023-05-10T02:59:23;5.70;;;5.20;;
25497;SDS011;13406;53.380;7.226;2023-05-10T03:01:48;6.20;;;5.70;;
25497;SDS011;13406;53.380;7.226;2023-05-10T03:04:14;6.43;;;5.87;;
25497;SDS011;13406;53.380;7.226;2023-05-10T03:06:40;6.13;;;5.53;;
25497;SDS011;13406;53.380;7.226;2023-05-10T03:09:05;6.07;;;5.50;;
25497;SDS011;13406;53.380;7.226;2023-05-10T03:14:26;6.50;;;5.80;;
25497;SDS011;13406;53.380;7.226;2023-05-10T03:20:09;6.60;;;6.03;;
25497;SDS011;13406;53.380;7.226;2023-05-10T03:22:34;6.23;;;5.30;;
25497;SDS011;13406;53.380;7.226;2023-05-10T03:25:06;6.33;;;5.83;;
25497;SDS011;13406;53.380;7.226;2023-05-10T03:27:35;5.83;;;5.33;;
25497;SDS011;13406;53.380;7.226;2023-05-10T03:30:04;6.53;;;5.97;;
25497;SDS011;13406;53.380;7.226;2023-05-10T03:32:38;5.80;;;5.30;;
25497;SDS011;13406;53.380;7.226;2023-05-10T03:35:10;5.73;;;5.23;;
25497;SDS011;13406;53.380;7.226;2023-05-10T03:37:38;6.37;;;5.77;;
25497;SDS011;13406;53.380;7.226;2023-05-10T03:40:04;6.70;;;6.10;;
25497;SDS011;13406;53.380;7.226;2023-05-10T03:42:30;5.70;;;5.10;;
25497;SDS011;13406;53.380;7.226;2023-05-10T03:44:55;7.53;;;6.83;;
25497;SDS011;13406;53.380;7.226;2023-05-10T03:47:21;7.17;;;6.57;;
25497;SDS011;13406;53.380;7.226;2023-05-10T03:49:46;5.77;;;5.27;;
25497;SDS011;13406;53.380;7.226;2023-05-10T03:52:11;6.50;;;5.93;;
25497;SDS011;13406;53.380;7.226;2023-05-10T03:54:37;6.33;;;5.83;;
25497;SDS011;13406;53.380;7.226;2023-05-10T03:57:03;6.23;;;5.73;;
25497;SDS011;13406;53.380;7.226;2023-05-10T03:59:29;5.53;;;5.03;;
25497;SDS011;13406;53.380;7.226;2023-05-10T04:01:54;7.60;;;5.13;;
25497;SDS011;13406;53.380;7.226;2023-05-10T04:04:20;5.20;;;4.80;;
25497;SDS011;13406;53.380;7.226;2023-05-10T04:06:46;6.80;;;4.87;;
25497;SDS011;13406;53.380;7.226;2023-05-10T04:09:12;5.80;;;5.30;;
25497;SDS011;13406;53.380;7.226;2023-05-10T04:11:37;5.67;;;5.17;;
25497;SDS011;13406;53.380;7.226;2023-05-10T04:14:02;5.20;;;4.80;;
25497;SDS011;13406;53.380;7.226;2023-05-10T04:16:28;5.17;;;4.77;;
25497;SDS011;13406;53.380;7.226;2023-05-10T04:18:53;4.83;;;4.40;;
25497;SDS011;13406;53.380;7.226;2023-05-10T04:21:19;5.20;;;4.70;;
25497;SDS011;13406;53.380;7.226;2023-05-10T04:23:44;4.13;;;3.83;;
25497;SDS011;13406;53.380;7.226;2023-05-10T04:26:10;5.33;;;4.87;;
25497;SDS011;13406;53.380;7.226;2023-05-10T04:28:35;5.37;;;4.97;;
25497;SDS011;13406;53.380;7.226;2023-05-10T04:31:04;5.13;;;4.73;;
25497;SDS011;13406;53.380;7.226;2023-05-10T04:33:30;5.17;;;4.67;;
25497;SDS011;13406;53.380;7.226;2023-05-10T04:35:56;5.60;;;5.10;;
25497;SDS011;13406;53.380;7.226;2023-05-10T04:38:22;4.63;;;4.23;;
25497;SDS011;13406;53.380;7.226;2023-05-10T04:40:47;4.87;;;4.47;;
25497;SDS011;13406;53.380;7.226;2023-05-10T04:43:13;4.17;;;3.70;;
25497;SDS011;13406;53.380;7.226;2023-05-10T04:45:38;5.50;;;4.83;;
25497;SDS011;13406;53.380;7.226;2023-05-10T04:48:04;5.20;;;4.70;;
25497;SDS011;13406;53.380;7.226;2023-05-10T04:50:30;5.40;;;4.90;;
25497;SDS011;13406;53.380;7.226;2023-05-10T04:52:56;5.23;;;4.83;;
25497;SDS011;13406;53.380;7.226;2023-05-10T04:55:22;4.63;;;4.27;;
25497;SDS011;13406;53.380;7.226;2023-05-10T04:57:47;5.57;;;4.57;;
25497;SDS011;13406;53.380;7.226;2023-05-10T05:00:13;4.50;;;4.10;;
25497;SDS011;13406;53.380;7.226;2023-05-10T05:02:41;5.40;;;4.93;;
25497;SDS011;13406;53.380;7.226;2023-05-10T05:05:08;4.93;;;4.50;;
25497;SDS011;13406;53.380;7.226;2023-05-10T05:07:33;4.60;;;4.20;;
25497;SDS011;13406;53.380;7.226;2023-05-10T05:09:59;5.00;;;4.60;;
25497;SDS011;13406;53.380;7.226;2023-05-10T05:12:24;5.87;;;5.27;;
25497;SDS011;13406;53.380;7.226;2023-05-10T05:14:50;5.83;;;5.33;;
25497;SDS011;13406;53.380;7.226;2023-05-10T05:17:15;5.90;;;5.30;;
25497;SDS011;13406;53.380;7.226;2023-05-10T05:19:41;6.17;;;5.57;;
25497;SDS011;13406;53.380;7.226;2023-05-10T05:22:06;6.57;;;5.97;;
25497;SDS011;13406;53.380;7.226;2023-05-10T05:24:36;7.00;;;6.40;;
25497;SDS011;13406;53.380;7.226;2023-05-10T05:27:04;7.33;;;6.73;;
25497;SDS011;13406;53.380;7.226;2023-05-10T05:29:30;7.83;;;7.13;;
25497;SDS011;13406;53.380;7.226;2023-05-10T05:31:56;7.53;;;6.83;;
25497;SDS011;13406;53.380;7.226;2023-05-10T05:34:21;6.60;;;6.00;;
25497;SDS011;13406;53.380;7.226;2023-05-10T05:36:47;6.43;;;5.80;;
25497;SDS011;13406;53.380;7.226;2023-05-10T05:39:13;6.23;;;5.63;;
25497;SDS011;13406;53.380;7.226;2023-05-10T05:41:39;7.67;;;5.87;;
25497;SDS011;13406;53.380;7.226;2023-05-10T05:44:04;6.40;;;5.80;;
25497;SDS011;13406;53.380;7.226;2023-05-10T05:46:30;7.43;;;6.60;;
25497;SDS011;13406;53.380;7.226;2023-05-10T05:48:55;6.83;;;5.60;;
25497;SDS011;13406;53.380;7.226;2023-05-10T05:51:21;6.60;;;5.97;;
25497;SDS011;13406;53.380;7.226;2023-05-10T05:53:46;8.00;;;6.80;;
25497;SDS011;13406;53.380;7.226;2023-05-10T05:56:11;8.30;;;7.50;;
25497;SDS011;13406;53.380;7.226;2023-05-10T05:58:37;6.67;;;6.03;;
25497;SDS011;13406;53.380;7.226;2023-05-10T06:01:02;9.00;;;7.10;;
25497;SDS011;13406;53.380;7.226;2023-05-10T06:03:28;7.73;;;7.00;;
25497;SDS011;13406;53.380;7.226;2023-05-10T06:05:53;8.47;;;6.90;;
25497;SDS011;13406;53.380;7.226;2023-05-10T06:08:19;7.00;;;6.30;;
25497;SDS011;13406;53.380;7.226;2023-05-10T06:10:45;5.83;;;5.23;;
25497;SDS011;13406;53.380;7.226;2023-05-10T06:13:10;4.73;;;4.33;;
25497;SDS011;13406;53.380;7.226;2023-05-10T06:15:36;6.00;;;4.40;;
25497;SDS011;13406;53.380;7.226;2023-05-10T06:18:01;4.10;;;3.70;;
25497;SDS011;13406;53.380;7.226;2023-05-10T06:20:27;4.80;;;4.30;;
25497;SDS011;13406;53.380;7.226;2023-05-10T06:22:52;7.83;;;3.63;;
25497;SDS011;13406;53.380;7.226;2023-05-10T06:25:18;4.07;;;3.30;;
25497;SDS011;13406;53.380;7.226;2023-05-10T06:27:44;3.93;;;2.97;;
25497;SDS011;13406;53.380;7.226;2023-05-10T06:30:09;3.57;;;2.90;;
25497;SDS011;13406;53.380;7.226;2023-05-10T06:32:35;2.80;;;2.27;;
25497;SDS011;13406;53.380;7.226;2023-05-10T06:35:00;2.97;;;2.30;;
25497;SDS011;13406;53.380;7.226;2023-05-10T06:37:26;3.03;;;2.20;;
25497;SDS011;13406;53.380;7.226;2023-05-10T06:39:51;3.00;;;2.43;;
25497;SDS011;13406;53.380;7.226;2023-05-10T06:42:17;2.63;;;2.30;;
25497;SDS011;13406;53.380;7.226;2023-05-10T06:44:42;2.90;;;2.60;;
25497;SDS011;13406;53.380;7.226;2023-05-10T06:47:08;2.30;;;2.10;;
25497;SDS011;13406;53.380;7.226;2023-05-10T06:49:34;3.20;;;2.53;;
25497;SDS011;13406;53.380;7.226;2023-05-10T06:51:59;3.27;;;2.40;;
25497;SDS011;13406;53.380;7.226;2023-05-10T06:54:25;2.80;;;2.50;;
25497;SDS011;13406;53.380;7.226;2023-05-10T06:56:50;2.33;;;2.03;;
25497;SDS011;13406;53.380;7.226;2023-05-10T06:59:16;2.93;;;2.63;;
25497;SDS011;13406;53.380;7.226;2023-05-10T07:01:41;2.70;;;1.70;;
25497;SDS011;13406;53.380;7.226;2023-05-10T07:04:07;2.57;;;1.90;;
25497;SDS011;13406;53.380;7.226;2023-05-10T07:06:33;3.33;;;1.50;;
25497;SDS011;13406;53.380;7.226;2023-05-10T07:08:59;1.73;;;1.37;;
25497;SDS011;13406;53.380;7.226;2023-05-10T07:11:25;2.50;;;1.60;;
25497;SDS011;13406;53.380;7.226;2023-05-10T07:13:51;1.30;;;1.20;;
25497;SDS011;13406;53.380;7.226;2023-05-10T07:16:17;1.70;;;1.20;;
25497;SDS011;13406;53.380;7.226;2023-05-10T07:18:42;1.87;;;1.50;;
25497;SDS011;13406;53.380;7.226;2023-05-10T07:21:08;3.23;;;1.40;;
25497;SDS011;13406;53.380;7.226;2023-05-10T07:23:33;4.63;;;2.57;;
25497;SDS011;13406;53.380;7.226;2023-05-10T07:25:58;3.20;;;2.13;;
25497;SDS011;13406;53.380;7.226;2023-05-10T07:28:25;2.67;;;2.03;;
25497;SDS011;13406;53.380;7.226;2023-05-10T07:30:50;2.37;;;2.00;;
25497;SDS011;13406;53.380;7.226;2023-05-10T07:33:16;1.83;;;1.73;;
25497;SDS011;13406;53.380;7.226;2023-05-10T07:35:42;2.30;;;1.63;;
25497;SDS011;13406;53.380;7.226;2023-05-10T07:38:07;4.33;;;1.97;;
25497;SDS011;13406;53.380;7.226;2023-05-10T07:40:33;2.00;;;1.67;;
25497;SDS011;13406;53.380;7.226;2023-05-10T07:42:58;2.23;;;1.40;;
25497;SDS011;13406;53.380;7.226;2023-05-10T07:45:26;2.03;;;1.77;;
25497;SDS011;13406;53.380;7.226;2023-05-10T07:47:52;1.33;;;1.23;;
25497;SDS011;13406;53.380;7.226;2023-05-10T07:50:17;1.00;;;0.80;;
25497;SDS011;13406;53.380;7.226;2023-05-10T07:52:43;1.20;;;0.93;;
25497;SDS011;13406;53.380;7.226;2023-05-10T07:55:08;1.73;;;1.00;;
25497;SDS011;13406;53.380;7.226;2023-05-10T07:57:34;1.80;;;1.33;;
25497;SDS011;13406;53.380;7.226;2023-05-10T08:00:00;1.60;;;1.17;;
25497;SDS011;13406;53.380;7.226;2023-05-10T08:02:25;1.67;;;1.20;;
25497;SDS011;13406;53.380;7.226;2023-05-10T08:04:51;1.50;;;1.40;;
25497;SDS011;13406;53.380;7.226;2023-05-10T08:07:17;2.00;;;1.80;;
25497;SDS011;13406;53.380;7.226;2023-05-10T08:09:42;2.10;;;1.90;;
25497;SDS011;13406;53.380;7.226;2023-05-10T08:12:07;4.00;;;2.80;;
25497;SDS011;13406;53.380;7.226;2023-05-10T08:14:33;3.20;;;2.67;;
25497;SDS011;13406;53.380;7.226;2023-05-10T08:16:58;2.77;;;2.57;;
25497;SDS011;13406;53.380;7.226;2023-05-10T08:19:24;3.60;;;3.30;;
25497;SDS011;13406;53.380;7.226;2023-05-10T08:21:49;5.87;;;5.30;;
25497;SDS011;13406;53.380;7.226;2023-05-10T08:24:15;7.10;;;6.30;;
25497;SDS011;13406;53.380;7.226;2023-05-10T08:26:40;6.37;;;5.73;;
25497;SDS011;13406;53.380;7.226;2023-05-10T08:29:06;8.57;;;6.80;;
25497;SDS011;13406;53.380;7.226;2023-05-10T08:31:31;8.67;;;6.83;;
25497;SDS011;13406;53.380;7.226;2023-05-10T08:33:57;8.83;;;6.30;;
25497;SDS011;13406;53.380;7.226;2023-05-10T08:36:22;8.03;;;5.40;;
25497;SDS011;13406;53.380;7.226;2023-05-10T08:38:52;7.13;;;5.00;;
25497;SDS011;13406;53.380;7.226;2023-05-10T08:41:19;7.53;;;4.50;;
25497;SDS011;13406;53.380;7.226;2023-05-10T08:43:46;5.73;;;4.33;;
25497;SDS011;13406;53.380;7.226;2023-05-10T08:46:13;7.30;;;4.47;;
25497;SDS011;13406;53.380;7.226;2023-05-10T08:48:42;6.63;;;4.00;;
25497;SDS011;13406;53.380;7.226;2023-05-10T08:51:09;5.27;;;4.20;;
25497;SDS011;13406;53.380;7.226;2023-05-10T08:53:38;6.10;;;3.77;;
25497;SDS011;13406;53.380;7.226;2023-05-10T08:56:04;9.40;;;3.47;;
25497;SDS011;13406;53.380;7.226;2023-05-10T08:58:30;5.33;;;4.10;;
25497;SDS011;13406;53.380;7.226;2023-05-10T09:00:56;4.87;;;3.83;;
25497;SDS011;13406;53.380;7.226;2023-05-10T09:03:22;5.50;;;4.20;;
25497;SDS011;13406;53.380;7.226;2023-05-10T09:05:48;4.73;;;4.13;;
25497;SDS011;13406;53.380;7.226;2023-05-10T09:08:14;5.33;;;4.80;;
25497;SDS011;13406;53.380;7.226;2023-05-10T09:10:44;4.90;;;4.40;;
25497;SDS011;13406;53.380;7.226;2023-05-10T09:13:12;5.00;;;4.03;;
25497;SDS011;13406;53.380;7.226;2023-05-10T09:15:39;3.80;;;3.50;;
25497;SDS011;13406;53.380;7.226;2023-05-10T09:18:04;4.57;;;4.17;;
25497;SDS011;13406;53.380;7.226;2023-05-10T09:20:30;6.03;;;3.90;;
25497;SDS011;13406;53.380;7.226;2023-05-10T09:22:56;4.30;;;3.90;;
25497;SDS011;13406;53.380;7.226;2023-05-10T09:25:21;4.87;;;3.60;;
25497;SDS011;13406;53.380;7.226;2023-05-10T09:27:47;3.77;;;3.20;;
25497;SDS011;13406;53.380;7.226;2023-05-10T09:30:23;5.10;;;3.87;;
25497;SDS011;13406;53.380;7.226;2023-05-10T09:32:51;3.70;;;3.30;;
25497;SDS011;13406;53.380;7.226;2023-05-10T09:35:18;4.60;;;4.20;;
25497;SDS011;13406;53.380;7.226;2023-05-10T09:37:46;5.07;;;4.57;;
25497;SDS011;13406;53.380;7.226;2023-05-10T09:40:14;5.20;;;4.70;;
25497;SDS011;13406;53.380;7.226;2023-05-10T09:42:42;5.07;;;4.57;;
25497;SDS011;13406;53.380;7.226;2023-05-10T09:45:15;4.20;;;3.80;;
25497;SDS011;13406;53.380;7.226;2023-05-10T09:47:41;4.70;;;4.20;;
25497;SDS011;13406;53.380;7.226;2023-05-10T09:50:06;4.90;;;4.40;;
25497;SDS011;13406;53.380;7.226;2023-05-10T09:52:51;4.80;;;4.30;;
25497;SDS011;13406;53.380;7.226;2023-05-10T09:55:19;5.10;;;4.20;;
25497;SDS011;13406;53.380;7.226;2023-05-10T09:57:50;9.27;;;3.53;;
25497;SDS011;13406;53.380;7.226;2023-05-10T10:00:24;6.10;;;4.13;;
25497;SDS011;13406;53.380;7.226;2023-05-10T10:02:57;6.40;;;4.30;;
25497;SDS011;13406;53.380;7.226;2023-05-10T10:05:30;6.93;;;4.40;;
25497;SDS011;13406;53.380;7.226;2023-05-10T10:07:57;7.73;;;4.17;;
25497;SDS011;13406;53.380;7.226;2023-05-10T10:10:26;6.00;;;4.40;;
25497;SDS011;13406;53.380;7.226;2023-05-10T10:12:53;5.77;;;4.40;;
25497;SDS011;13406;53.380;7.226;2023-05-10T10:15:22;5.40;;;3.73;;
25497;SDS011;13406;53.380;7.226;2023-05-10T10:17:50;4.60;;;3.90;;
25497;SDS011;13406;53.380;7.226;2023-05-10T10:20:16;5.43;;;4.40;;
25497;SDS011;13406;53.380;7.226;2023-05-10T10:22:43;5.23;;;4.00;;
25497;SDS011;13406;53.380;7.226;2023-05-10T10:25:09;4.00;;;3.40;;
25497;SDS011;13406;53.380;7.226;2023-05-10T10:35:52;3.60;;;3.00;;
25497;SDS011;13406;53.380;7.226;2023-05-10T10:38:19;4.10;;;3.03;;
25497;SDS011;13406;53.380;7.226;2023-05-10T10:40:45;2.90;;;2.57;;
25497;SDS011;13406;53.380;7.226;2023-05-10T10:43:26;3.40;;;3.10;;
25497;SDS011;13406;53.380;7.226;2023-05-10T10:46:09;2.43;;;2.23;;
25497;SDS011;13406;53.380;7.226;2023-05-10T10:49:08;3.33;;;2.63;;
25497;SDS011;13406;53.380;7.226;2023-05-10T10:51:38;3.10;;;2.80;;
25497;SDS011;13406;53.380;7.226;2023-05-10T10:54:10;2.47;;;2.17;;
25497;SDS011;13406;53.380;7.226;2023-05-10T10:56:36;3.00;;;2.20;;
25497;SDS011;13406;53.380;7.226;2023-05-10T10:59:02;3.30;;;2.17;;
25497;SDS011;13406;53.380;7.226;2023-05-10T11:01:32;2.00;;;1.80;;
25497;SDS011;13406;53.380;7.226;2023-05-10T11:06:33;2.57;;;2.37;;
25497;SDS011;13406;53.380;7.226;2023-05-10T11:09:06;2.40;;;2.20;;
25497;SDS011;13406;53.380;7.226;2023-05-10T11:11:34;2.07;;;1.87;;
25497;SDS011;13406;53.380;7.226;2023-05-10T11:14:04;3.50;;;3.00;;
25497;SDS011;13406;53.380;7.226;2023-05-10T11:16:40;3.60;;;3.30;;
25497;SDS011;13406;53.380;7.226;2023-05-10T11:19:13;3.70;;;3.40;;
25497;SDS011;13406;53.380;7.226;2023-05-10T11:24:30;3.97;;;3.67;;
25497;SDS011;13406;53.380;7.226;2023-05-10T11:26:56;4.30;;;3.90;;
25497;SDS011;13406;53.380;7.226;2023-05-10T11:29:22;3.47;;;3.17;;
25497;SDS011;13406;53.380;7.226;2023-05-10T11:31:48;3.50;;;3.10;;
25497;SDS011;13406;53.380;7.226;2023-05-10T11:36:52;2.60;;;2.40;;
25497;SDS011;13406;53.380;7.226;2023-05-10T11:39:19;2.60;;;2.40;;
25497;SDS011;13406;53.380;7.226;2023-05-10T11:41:47;2.33;;;2.13;;
25497;SDS011;13406;53.380;7.226;2023-05-10T11:44:14;3.40;;;1.90;;
25497;SDS011;13406;53.380;7.226;2023-05-10T11:46:40;1.73;;;1.53;;
25497;SDS011;13406;53.380;7.226;2023-05-10T11:49:06;1.77;;;1.53;;
25497;SDS011;13406;53.380;7.226;2023-05-10T11:51:35;2.00;;;1.50;;
25497;SDS011;13406;53.380;7.226;2023-05-10T11:54:04;3.37;;;1.67;;
25497;SDS011;13406;53.380;7.226;2023-05-10T11:56:34;1.60;;;1.40;;
25497;SDS011;13406;53.380;7.226;2023-05-10T11:58:59;1.63;;;1.43;;
25497;SDS011;13406;53.380;7.226;2023-05-10T12:01:26;1.00;;;0.90;;
25497;SDS011;13406;53.380;7.226;2023-05-10T12:03:53;1.90;;;1.60;;
25497;SDS011;13406;53.380;7.226;2023-05-10T12:06:19;1.60;;;1.43;;
25497;SDS011;13406;53.380;7.226;2023-05-10T12:08:46;1.57;;;1.10;;
25497;SDS011;13406;53.380;7.226;2023-05-10T12:11:14;2.80;;;1.60;;
25497;SDS011;13406;53.380;7.226;2023-05-10T12:13:41;1.77;;;1.50;;
25497;SDS011;13406;53.380;7.226;2023-05-10T12:16:28;1.53;;;1.10;;
25497;SDS011;13406;53.380;7.226;2023-05-10T12:18:58;2.77;;;2.10;;
25497;SDS011;13406;53.380;7.226;2023-05-10T12:21:24;3.30;;;3.00;;
25497;SDS011;13406;53.380;7.226;2023-05-10T12:23:51;2.73;;;2.43;;
25497;SDS011;13406;53.380;7.226;2023-05-10T12:26:21;4.70;;;2.80;;
25497;SDS011;13406;53.380;7.226;2023-05-10T12:28:47;3.13;;;2.40;;
25497;SDS011;13406;53.380;7.226;2023-05-10T12:31:13;3.33;;;2.50;;
25497;SDS011;13406;53.380;7.226;2023-05-10T12:33:39;3.83;;;2.40;;
25497;SDS011;13406;53.380;7.226;2023-05-10T12:36:08;3.13;;;2.13;;
25497;SDS011;13406;53.380;7.226;2023-05-10T12:38:41;2.07;;;1.50;;
25497;SDS011;13406;53.380;7.226;2023-05-10T12:41:12;1.80;;;1.47;;
25497;SDS011;13406;53.380;7.226;2023-05-10T12:43:40;2.47;;;1.40;;
25497;SDS011;13406;53.380;7.226;2023-05-10T12:46:06;1.70;;;1.27;;
25497;SDS011;13406;53.380;7.226;2023-05-10T12:48:39;2.27;;;1.90;;
25497;SDS011;13406;53.380;7.226;2023-05-10T12:51:06;2.43;;;1.50;;
25497;SDS011;13406;53.380;7.226;2023-05-10T12:53:34;1.67;;;1.40;;
25497;SDS011;13406;53.380;7.226;2023-05-10T12:56:00;2.70;;;1.60;;
25497;SDS011;13406;53.380;7.226;2023-05-10T12:58:26;3.17;;;2.30;;
25497;SDS011;13406;53.380;7.226;2023-05-10T13:00:51;4.57;;;2.93;;
25497;SDS011;13406;53.380;7.226;2023-05-10T13:03:17;3.53;;;2.70;;
25497;SDS011;13406;53.380;7.226;2023-05-10T13:05:43;3.70;;;2.50;;
25497;SDS011;13406;53.380;7.226;2023-05-10T13:08:08;4.00;;;3.10;;
25497;SDS011;13406;53.380;7.226;2023-05-10T13:10:34;6.13;;;2.93;;
25497;SDS011;13406;53.380;7.226;2023-05-10T13:12:59;3.07;;;2.53;;
25497;SDS011;13406;53.380;7.226;2023-05-10T13:15:25;3.90;;;2.97;;
25497;SDS011;13406;53.380;7.226;2023-05-10T13:17:51;3.90;;;3.07;;
25497;SDS011;13406;53.380;7.226;2023-05-10T13:20:16;3.30;;;3.00;;
25497;SDS011;13406;53.380;7.226;2023-05-10T13:22:45;4.43;;;3.63;;
25497;SDS011;13406;53.380;7.226;2023-05-10T13:25:10;5.30;;;4.17;;
25497;SDS011;13406;53.380;7.226;2023-05-10T13:27:37;4.20;;;3.80;;
25497;SDS011;13406;53.380;7.226;2023-05-10T13:30:04;4.30;;;3.70;;
25497;SDS011;13406;53.380;7.226;2023-05-10T13:32:30;5.53;;;4.07;;
25497;SDS011;13406;53.380;7.226;2023-05-10T13:34:55;6.03;;;4.70;;
25497;SDS011;13406;53.380;7.226;2023-05-10T13:37:21;5.20;;;4.03;;
25497;SDS011;13406;53.380;7.226;2023-05-10T13:39:47;6.70;;;4.10;;
25497;SDS011;13406;53.380;7.226;2023-05-10T13:42:12;4.40;;;3.93;;
25497;SDS011;13406;53.380;7.226;2023-05-10T13:44:38;6.50;;;4.20;;
25497;SDS011;13406;53.380;7.226;2023-05-10T13:47:04;5.10;;;3.90;;
25497;SDS011;13406;53.380;7.226;2023-05-10T13:49:29;4.60;;;3.77;;
25497;SDS011;13406;53.380;7.226;2023-05-10T13:51:55;6.20;;;3.70;;
25497;SDS011;13406;53.380;7.226;2023-05-10T13:54:20;5.33;;;3.30;;
25497;SDS011;13406;53.380;7.226;2023-05-10T13:56:47;4.13;;;3.60;;
25497;SDS011;13406;53.380;7.226;2023-05-10T13:59:13;4.43;;;2.87;;
25497;SDS011;13406;53.380;7.226;2023-05-10T14:01:39;6.17;;;4.00;;
25497;SDS011;13406;53.380;7.226;2023-05-10T14:04:06;4.83;;;3.37;;
25497;SDS011;13406;53.380;7.226;2023-05-10T14:06:35;4.90;;;4.10;;
25497;SDS011;13406;53.380;7.226;2023-05-10T14:09:03;5.33;;;4.03;;
25497;SDS011;13406;53.380;7.226;2023-05-10T14:11:29;5.03;;;3.90;;
25497;SDS011;13406;53.380;7.226;2023-05-10T14:13:54;4.17;;;3.77;;
25497;SDS011;13406;53.380;7.226;2023-05-10T14:16:20;5.27;;;4.33;;
25497;SDS011;13406;53.380;7.226;2023-05-10T14:18:45;3.73;;;3.43;;
25497;SDS011;13406;53.380;7.226;2023-05-10T14:21:11;4.10;;;3.70;;
25497;SDS011;13406;53.380;7.226;2023-05-10T14:23:37;4.67;;;4.13;;
25497;SDS011;13406;53.380;7.226;2023-05-10T14:26:02;7.93;;;5.77;;
25497;SDS011;13406;53.380;7.226;2023-05-10T14:28:28;6.40;;;5.73;;
25497;SDS011;13406;53.380;7.226;2023-05-10T14:30:53;6.40;;;5.80;;
25497;SDS011;13406;53.380;7.226;2023-05-10T14:33:19;5.90;;;5.30;;
25497;SDS011;13406;53.380;7.226;2023-05-10T14:35:47;5.07;;;4.60;;
25497;SDS011;13406;53.380;7.226;2023-05-10T14:38:13;5.70;;;5.20;;
25497;SDS011;13406;53.380;7.226;2023-05-10T14:40:39;6.53;;;5.60;;
25497;SDS011;13406;53.380;7.226;2023-05-10T14:43:04;6.67;;;5.83;;
25497;SDS011;13406;53.380;7.226;2023-05-10T14:45:30;5.13;;;4.60;;
25497;SDS011;13406;53.380;7.226;2023-05-10T14:47:56;5.93;;;5.33;;
25497;SDS011;13406;53.380;7.226;2023-05-10T14:50:22;5.00;;;4.50;;
25497;SDS011;13406;53.380;7.226;2023-05-10T14:52:48;4.23;;;3.73;;
25497;SDS011;13406;53.380;7.226;2023-05-10T14:55:14;6.40;;;4.87;;
25497;SDS011;13406;53.380;7.226;2023-05-10T14:57:39;5.43;;;4.80;;
25497;SDS011;13406;53.380;7.226;2023-05-10T15:00:05;5.80;;;5.03;;
25497;SDS011;13406;53.380;7.226;2023-05-10T15:02:31;5.63;;;4.80;;
25497;SDS011;13406;53.380;7.226;2023-05-10T15:04:57;5.13;;;4.63;;
25497;SDS011;13406;53.380;7.226;2023-05-10T15:07:22;6.90;;;5.87;;
25497;SDS011;13406;53.380;7.226;2023-05-10T15:09:49;8.80;;;5.20;;
25497;SDS011;13406;53.380;7.226;2023-05-10T15:12:15;6.10;;;4.23;;
25497;SDS011;13406;53.380;7.226;2023-05-10T15:14:40;5.20;;;4.70;;
25497;SDS011;13406;53.380;7.226;2023-05-10T15:17:06;4.57;;;4.17;;
25497;SDS011;13406;53.380;7.226;2023-05-10T15:19:32;5.27;;;4.77;;
25497;SDS011;13406;53.380;7.226;2023-05-10T15:21:58;6.50;;;5.87;;